createdAt,value
2023-02-14T00:01:09.179Z,98633.56
2023-02-14T00:03:36.497Z,98633.28
2023-02-14T00:06:08.430Z,98649.03
2023-02-14T00:08:36.788Z,98649.28
2023-02-14T00:11:05.587Z,98635.44
2023-02-14T00:13:33.019Z,98656.25
2023-02-14T00:16:00.307Z,98655.19
2023-02-14T00:18:47.551Z,98648.91
2023-02-14T00:21:14.709Z,98656.03
2023-02-14T00:23:41.862Z,98660.13
2023-02-14T00:26:14.908Z,98652.19
2023-02-14T00:28:43.613Z,98646.69
2023-02-14T00:31:11.401Z,98659.00
2023-02-14T00:33:39.010Z,98661.47
2023-02-14T00:36:07.579Z,98666.66
2023-02-14T00:38:36.150Z,98659.03
2023-02-14T00:41:05.119Z,98653.97
2023-02-14T00:43:32.194Z,98665.31
2023-02-14T00:45:59.278Z,98675.13
2023-02-14T00:48:26.634Z,98679.75
2023-02-14T00:50:54.861Z,98685.44
2023-02-14T00:53:21.936Z,98690.72
2023-02-14T00:55:50.332Z,98688.22
2023-02-14T00:58:17.390Z,98677.75
2023-02-14T01:00:44.533Z,98691.06
2023-02-14T01:03:11.698Z,98686.13
2023-02-14T01:05:38.734Z,98690.81
2023-02-14T01:08:06.082Z,98693.50
2023-02-14T01:10:33.272Z,98683.59
2023-02-14T01:13:00.377Z,98679.06
2023-02-14T01:15:28.620Z,98686.06
2023-02-14T01:17:55.744Z,98686.06
2023-02-14T01:20:22.868Z,98685.00
2023-02-14T01:22:49.934Z,98688.03
2023-02-14T01:25:17.209Z,98694.47
2023-02-14T01:27:44.881Z,98692.44
2023-02-14T01:30:14.425Z,98689.69
2023-02-14T01:32:42.546Z,98696.53
2023-02-14T01:35:10.794Z,98700.34
2023-02-14T01:37:38.091Z,98703.09
2023-02-14T01:40:08.471Z,98710.88
2023-02-14T01:42:36.761Z,98712.91
2023-02-14T01:45:18.760Z,98713.41
2023-02-14T01:47:51.842Z,98702.97
2023-02-14T01:50:24.369Z,98719.66
2023-02-14T01:52:55.800Z,98717.41
2023-02-14T01:55:28.757Z,98723.44
2023-02-14T01:58:09.471Z,98708.44
2023-02-14T02:00:57.225Z,98722.22
2023-02-14T02:03:48.524Z,98704.41
2023-02-14T02:06:16.883Z,98716.06
2023-02-14T02:08:54.471Z,98712.66
2023-02-14T02:11:21.942Z,98720.66
2023-02-14T02:13:49.048Z,98724.66
2023-02-14T02:17:15.066Z,98736.09
2023-02-14T02:20:11.091Z,98723.22
2023-02-14T02:23:05.401Z,98726.31
2023-02-14T02:25:56.855Z,98726.00
2023-02-14T02:28:32.612Z,98726.84
2023-02-14T02:31:11.789Z,98736.53
2023-02-14T02:34:30.293Z,98728.13
2023-02-14T02:37:16.288Z,98736.47
2023-02-14T02:40:09.071Z,98719.06
2023-02-14T02:42:44.135Z,98718.81
2023-02-14T02:46:02.315Z,98733.84
2023-02-14T02:48:43.534Z,98729.53
2023-02-14T02:51:36.775Z,98737.41
2023-02-14T02:54:11.758Z,98739.41
2023-02-14T02:56:49.959Z,98736.81
2023-02-14T02:59:29.936Z,98733.16
2023-02-14T03:02:18.191Z,98738.34
2023-02-14T03:04:54.787Z,98724.13
2023-02-14T03:07:41.969Z,98727.47
2023-02-14T03:10:26.993Z,98736.16
2023-02-14T03:13:11.397Z,98743.00
2023-02-14T03:15:57.152Z,98729.47
2023-02-14T03:18:39.661Z,98742.59
2023-02-14T03:21:25.440Z,98745.19
2023-02-14T03:24:16.769Z,98738.19
2023-02-14T03:27:18.788Z,98753.03
2023-02-14T03:30:09.871Z,98755.22
2023-02-14T03:32:58.993Z,98764.19
2023-02-14T03:35:55.262Z,98728.47
2023-02-14T03:38:35.128Z,98741.50
2023-02-14T03:41:16.058Z,98746.94
2023-02-14T03:43:53.695Z,98758.91
2023-02-14T03:46:23.352Z,98758.53
2023-02-14T03:48:54.536Z,98767.03
2023-02-14T03:51:24.255Z,98772.66
2023-02-14T03:53:57.247Z,98764.44
2023-02-14T03:56:36.202Z,98757.47
2023-02-14T03:59:18.688Z,98760.44
2023-02-14T04:01:50.845Z,98750.00
2023-02-14T04:04:21.944Z,98771.16
2023-02-14T04:06:48.811Z,98767.56
2023-02-14T04:09:15.833Z,98771.28
2023-02-14T04:11:43.054Z,98776.41
2023-02-14T04:14:10.124Z,98775.19
2023-02-14T04:16:57.091Z,98776.03
2023-02-14T04:19:24.152Z,98783.66
2023-02-14T04:21:52.536Z,98777.03
2023-02-14T04:24:20.355Z,98793.81
2023-02-14T04:27:06.054Z,98783.84
2023-02-14T04:29:33.076Z,98786.72
2023-02-14T04:32:00.229Z,98789.84
2023-02-14T04:34:27.418Z,98779.00
2023-02-14T04:36:54.937Z,98780.41
2023-02-14T04:39:22.007Z,98796.75
2023-02-14T04:41:49.020Z,98799.84
2023-02-14T04:44:16.065Z,98803.03
2023-02-14T04:46:43.266Z,98805.50
2023-02-14T04:49:10.342Z,98805.84
2023-02-14T04:51:37.389Z,98803.69
2023-02-14T04:54:04.500Z,98816.72
2023-02-14T04:56:31.560Z,98808.16
2023-02-14T04:59:00.608Z,98821.56
2023-02-14T05:01:27.941Z,98823.50
2023-02-14T05:03:55.022Z,98829.72
2023-02-14T05:06:22.108Z,98834.63
2023-02-14T05:08:49.272Z,98838.63
2023-02-14T05:11:16.510Z,98845.19
2023-02-14T05:13:43.606Z,98846.31
2023-02-14T05:16:10.853Z,98847.13
2023-02-14T05:18:38.055Z,98843.19
2023-02-14T05:21:05.440Z,98847.75
2023-02-14T05:23:32.621Z,98851.03
2023-02-14T05:25:59.755Z,98856.13
2023-02-14T05:28:26.862Z,98856.88
2023-02-14T05:30:54.017Z,98854.56
2023-02-14T05:33:21.170Z,98862.66
2023-02-14T05:35:48.286Z,98867.03
2023-02-14T05:38:15.407Z,98869.13
2023-02-14T05:40:43.329Z,98862.69
2023-02-14T05:43:10.592Z,98868.59
2023-02-14T05:45:38.137Z,98869.16
2023-02-14T05:48:06.496Z,98861.72
2023-02-14T05:50:33.726Z,98873.63
2023-02-14T05:53:01.374Z,98874.75
2023-02-14T05:55:28.655Z,98867.00
2023-02-14T05:57:55.881Z,98871.28
2023-02-14T06:00:24.309Z,98871.28
2023-02-14T06:02:51.729Z,98875.06
2023-02-14T06:05:20.304Z,98872.41
2023-02-14T06:07:50.967Z,98877.91
2023-02-14T06:10:19.533Z,98860.91
2023-02-14T06:12:49.208Z,98882.28
2023-02-14T06:15:16.608Z,98880.22
2023-02-14T06:17:44.004Z,98880.91
2023-02-14T06:20:11.896Z,98886.34
2023-02-14T06:22:39.361Z,98870.25
2023-02-14T06:25:06.753Z,98866.59
2023-02-14T06:27:33.859Z,98878.47
2023-02-14T06:30:01.452Z,98884.78
2023-02-14T06:32:32.085Z,98881.69
2023-02-14T06:34:59.171Z,98887.97
2023-02-14T06:37:26.418Z,98889.28
2023-02-14T06:39:53.581Z,98886.03
2023-02-14T06:42:20.742Z,98892.84
2023-02-14T06:44:47.792Z,98890.78
2023-02-14T06:47:14.895Z,98887.78
2023-02-14T06:49:42.118Z,98889.72
2023-02-14T06:52:09.177Z,98901.75
2023-02-14T06:54:36.626Z,98889.88
2023-02-14T06:57:03.883Z,98908.25
2023-02-14T06:59:30.972Z,98921.41
2023-02-14T07:01:58.112Z,98919.75
2023-02-14T07:04:25.182Z,98920.25
2023-02-14T07:06:52.221Z,98914.63
2023-02-14T07:09:19.378Z,98931.72
2023-02-14T07:11:46.858Z,98928.00
2023-02-14T07:14:14.340Z,98916.72
2023-02-14T07:16:41.477Z,98927.78
2023-02-14T07:19:08.583Z,98925.81
2023-02-14T07:21:35.706Z,98932.59
2023-02-14T07:24:02.857Z,98933.75
2023-02-14T07:26:29.937Z,98938.00
2023-02-14T07:28:57.072Z,98939.41
2023-02-14T07:31:24.402Z,98944.19
2023-02-14T07:33:52.463Z,98950.88
2023-02-14T07:36:19.655Z,98935.81
2023-02-14T07:38:46.808Z,98954.34
2023-02-14T07:41:13.869Z,98950.91
2023-02-14T07:43:40.958Z,98958.50
2023-02-14T07:46:08.684Z,98966.91
2023-02-14T07:48:35.823Z,98955.66
2023-02-14T07:51:03.406Z,98969.44
2023-02-14T07:53:30.818Z,98970.22
2023-02-14T07:55:57.941Z,98954.00
2023-02-14T07:58:25.106Z,98945.69
2023-02-14T08:00:52.535Z,98981.03
2023-02-14T08:03:19.679Z,98969.13
2023-02-14T08:05:57.317Z,98975.25
2023-02-14T08:08:29.975Z,98953.72
2023-02-14T08:10:58.052Z,98974.28
2023-02-14T08:13:25.424Z,98975.06
2023-02-14T08:16:04.901Z,98966.38
2023-02-14T08:18:36.558Z,98984.44
2023-02-14T08:21:05.105Z,98987.22
2023-02-14T08:23:32.788Z,98983.13
2023-02-14T08:25:59.880Z,98995.19
2023-02-14T08:28:27.934Z,98989.38
2023-02-14T08:30:55.852Z,99003.97
2023-02-14T08:33:23.185Z,99004.56
2023-02-14T08:35:52.067Z,99010.78
2023-02-14T08:38:19.261Z,98998.16
2023-02-14T08:40:46.490Z,99005.28
2023-02-14T08:43:14.034Z,99006.63
2023-02-14T08:45:41.320Z,99012.56
2023-02-14T08:48:11.305Z,99012.88
2023-02-14T08:50:39.834Z,99009.31
2023-02-14T08:53:11.885Z,99025.16
2023-02-14T08:55:39.592Z,99033.72
2023-02-14T08:58:07.948Z,99026.13
2023-02-14T09:00:35.428Z,99034.50
2023-02-14T09:03:02.758Z,99044.63
2023-02-14T09:05:30.164Z,99049.00
2023-02-14T09:07:57.458Z,99045.00
2023-02-14T09:10:25.330Z,99042.41
2023-02-14T09:12:52.619Z,99041.56
2023-02-14T09:15:20.074Z,99054.31
2023-02-14T09:17:47.909Z,99059.50
2023-02-14T09:20:16.237Z,99064.84
2023-02-14T09:22:43.958Z,99053.78
2023-02-14T09:25:11.618Z,99067.78
2023-02-14T09:27:40.284Z,99069.13
2023-02-14T09:30:10.576Z,99078.34
2023-02-14T09:32:37.687Z,99074.19
2023-02-14T09:35:05.046Z,99080.53
2023-02-14T09:37:32.095Z,99078.25
2023-02-14T09:39:59.203Z,99075.81
2023-02-14T09:42:48.098Z,99081.56
2023-02-14T09:45:19.819Z,99091.84
2023-02-14T09:47:52.896Z,99089.31
2023-02-14T09:50:49.906Z,99060.38
2023-02-14T09:53:30.186Z,99090.84
2023-02-14T09:56:20.712Z,99109.31
2023-02-14T09:59:17.617Z,99113.94
2023-02-14T10:01:56.823Z,99117.69
2023-02-14T10:04:23.965Z,99131.44
2023-02-14T10:06:56.717Z,99118.94
2023-02-14T10:10:09.486Z,99124.28
2023-02-14T10:12:52.802Z,99118.81
2023-02-14T10:15:30.632Z,99131.22
2023-02-14T10:18:27.488Z,99124.69
2023-02-14T10:21:00.474Z,99146.69
2023-02-14T10:23:38.269Z,99133.16
2023-02-14T10:26:10.841Z,99142.00
2023-02-14T10:28:45.307Z,99122.81
2023-02-14T10:31:31.570Z,99149.25
2023-02-14T10:34:24.772Z,99158.91
2023-02-14T10:36:54.692Z,99159.72
2023-02-14T10:39:43.285Z,99175.66
2023-02-14T10:42:13.342Z,99169.94
2023-02-14T10:45:15.946Z,99177.19
2023-02-14T10:48:01.473Z,99167.25
2023-02-14T10:50:44.667Z,99169.38
2023-02-14T10:53:17.596Z,99180.09
2023-02-14T10:56:10.038Z,99176.41
2023-02-14T10:58:40.305Z,99189.41
2023-02-14T11:01:12.453Z,99198.25
2023-02-14T11:03:44.041Z,99178.63
2023-02-14T11:06:11.722Z,99199.16
2023-02-14T11:08:41.459Z,99197.31
2023-02-14T11:11:19.796Z,99198.75
2023-02-14T11:13:47.339Z,99210.66
2023-02-14T11:16:32.754Z,99215.44
2023-02-14T11:19:14.923Z,99215.78
2023-02-14T11:21:44.933Z,99223.03
2023-02-14T11:24:33.062Z,99229.47
2023-02-14T11:27:04.212Z,99219.06
2023-02-14T11:29:36.532Z,99228.34
2023-02-14T11:32:09.832Z,99227.09
2023-02-14T11:34:40.164Z,99240.16
2023-02-14T11:37:25.920Z,99235.94
2023-02-14T11:39:55.633Z,99249.53
2023-02-14T11:42:43.144Z,99260.16
2023-02-14T11:45:29.006Z,99247.59
2023-02-14T11:48:19.985Z,99255.81
2023-02-14T11:51:03.088Z,99258.19
2023-02-14T11:53:56.180Z,99234.28
2023-02-14T11:56:24.617Z,99263.28
2023-02-14T11:58:58.246Z,99255.81
2023-02-14T12:01:30.071Z,99277.41
2023-02-14T12:04:04.201Z,99280.06
2023-02-14T12:06:34.251Z,99280.72
2023-02-14T12:09:23.735Z,99273.47
2023-02-14T12:11:58.188Z,99278.03
2023-02-14T12:14:29.711Z,99255.59
2023-02-14T12:17:12.092Z,99294.19
2023-02-14T12:19:59.851Z,99294.56
2023-02-14T12:22:33.774Z,99298.25
2023-02-14T12:25:15.909Z,99306.34
2023-02-14T12:27:48.757Z,99317.63
2023-02-14T12:30:20.938Z,99313.88
2023-02-14T12:32:53.511Z,99315.44
2023-02-14T12:35:39.225Z,99329.13
2023-02-14T12:38:12.117Z,99334.19
2023-02-14T12:41:02.142Z,99330.13
2023-02-14T12:43:51.539Z,99334.94
2023-02-14T12:46:33.528Z,99334.38
2023-02-14T12:49:25.024Z,99332.13
2023-02-14T12:52:06.507Z,99344.81
2023-02-14T12:54:50.583Z,99351.19
2023-02-14T12:58:02.428Z,99357.59
2023-02-14T13:00:32.460Z,99363.63
2023-02-14T13:03:30.578Z,99367.50
2023-02-14T13:06:00.588Z,99368.81
2023-02-14T13:08:46.987Z,99377.41
2023-02-14T13:11:41.461Z,99374.00
2023-02-14T13:14:45.889Z,99381.81
2023-02-14T13:17:35.490Z,99391.34
2023-02-14T13:20:24.961Z,99397.28
2023-02-14T13:22:55.312Z,99410.50
2023-02-14T13:25:36.212Z,99393.34
2023-02-14T13:28:07.455Z,99392.28
2023-02-14T13:30:37.303Z,99404.16
2023-02-14T13:33:09.769Z,99395.41
2023-02-14T13:35:37.719Z,99422.72
2023-02-14T13:38:08.714Z,99427.59
2023-02-14T13:40:36.144Z,99432.78
2023-02-14T13:43:03.479Z,99432.78
2023-02-14T13:45:35.078Z,99443.44
2023-02-14T13:48:06.684Z,99443.44
2023-02-14T13:50:38.706Z,99450.28
2023-02-14T13:53:11.206Z,99463.50
2023-02-14T13:55:44.597Z,99455.97
2023-02-14T13:58:21.825Z,99455.28
2023-02-14T14:00:50.322Z,99458.13
2023-02-14T14:03:30.006Z,99460.72
2023-02-14T14:06:05.044Z,99466.38
2023-02-14T14:08:32.184Z,99466.06
2023-02-14T14:11:01.842Z,99472.22
2023-02-14T14:13:41.134Z,99487.16
2023-02-14T14:16:29.363Z,99490.38
2023-02-14T14:19:10.564Z,99482.81
2023-02-14T14:21:43.157Z,99497.56
2023-02-14T14:24:29.161Z,99510.09
2023-02-14T14:27:17.727Z,99522.06
2023-02-14T14:29:56.216Z,99520.81
2023-02-14T14:32:35.323Z,99524.78
2023-02-14T14:35:04.405Z,99520.78
2023-02-14T14:37:50.073Z,99531.50
2023-02-14T14:40:36.043Z,99539.25
2023-02-14T14:43:24.341Z,99541.63
2023-02-14T14:45:53.426Z,99535.56
2023-02-14T14:48:40.277Z,99537.75
2023-02-14T14:51:10.103Z,99551.00
2023-02-14T14:53:48.959Z,99551.16
2023-02-14T14:56:26.029Z,99538.25
2023-02-14T14:58:54.395Z,99557.41
2023-02-14T15:01:30.621Z,99561.06
2023-02-14T15:04:22.444Z,99567.09
2023-02-14T15:06:49.931Z,99572.41
2023-02-14T15:09:23.799Z,99566.84
2023-02-14T15:12:11.823Z,99562.94
2023-02-14T15:14:42.324Z,99580.25
2023-02-14T15:17:19.872Z,99573.34
2023-02-14T15:19:51.726Z,99588.56
2023-02-14T15:22:25.883Z,99589.44
2023-02-14T15:24:53.737Z,99587.44
2023-02-14T15:27:23.659Z,99598.34
2023-02-14T15:29:55.335Z,99587.59
2023-02-14T15:32:24.241Z,99607.19
2023-02-14T15:34:52.786Z,99590.94
2023-02-14T15:37:21.622Z,99621.22
2023-02-14T15:39:53.227Z,99628.41
2023-02-14T15:42:26.001Z,99630.13
2023-02-14T15:45:18.110Z,99634.59
2023-02-14T15:47:47.943Z,99647.16
2023-02-14T15:50:18.293Z,99655.50
2023-02-14T15:52:47.559Z,99645.81
2023-02-14T15:55:22.657Z,99654.09
2023-02-14T15:57:56.972Z,99632.81
2023-02-14T16:00:25.249Z,99654.78
2023-02-14T16:02:59.559Z,99658.56
2023-02-14T16:05:27.658Z,99658.00
2023-02-14T16:08:27.620Z,99668.41
2023-02-14T16:11:14.722Z,99683.47
2023-02-14T16:13:45.058Z,99669.59
2023-02-14T16:16:14.213Z,99675.91
2023-02-14T16:18:50.199Z,99662.44
2023-02-14T16:21:33.976Z,99675.34
2023-02-14T16:24:13.336Z,99683.50
2023-02-14T16:26:43.031Z,99696.16
2023-02-14T16:29:13.193Z,99695.13
2023-02-14T16:32:06.223Z,99674.41
2023-02-14T16:34:32.010Z,99694.38
2023-02-14T16:37:05.603Z,99692.50
2023-02-14T16:39:32.850Z,99694.16
2023-02-14T16:42:01.766Z,99689.50
2023-02-14T16:44:32.028Z,99708.59
2023-02-14T16:47:02.222Z,99668.09
2023-02-14T16:49:30.231Z,99702.84
2023-02-14T16:51:57.755Z,99705.34
2023-02-14T16:54:26.855Z,99705.91
2023-02-14T16:57:03.401Z,99716.28
2023-02-14T16:59:31.300Z,99711.63
2023-02-14T17:01:58.980Z,99717.75
2023-02-14T17:04:26.447Z,99720.97
2023-02-14T17:06:55.267Z,99734.16
2023-02-14T17:09:28.029Z,99737.63
2023-02-14T17:12:00.402Z,99744.88
2023-02-14T17:14:33.252Z,99737.59
2023-02-14T17:17:00.778Z,99747.16
2023-02-14T17:19:28.096Z,99755.16
2023-02-14T17:21:58.249Z,99742.41
2023-02-14T17:24:26.352Z,99750.50
2023-02-14T17:26:53.403Z,99730.75
2023-02-14T17:29:20.558Z,99751.94
2023-02-14T17:31:47.771Z,99752.53
2023-02-14T17:34:14.930Z,99758.28
2023-02-14T17:36:42.640Z,99767.06
2023-02-14T17:39:09.932Z,99763.38
2023-02-14T17:41:37.033Z,99744.44
2023-02-14T17:44:05.812Z,99773.75
2023-02-14T17:46:33.239Z,99770.34
2023-02-14T17:49:02.734Z,99766.25
2023-02-14T17:51:30.238Z,99771.44
2023-02-14T17:53:58.948Z,99775.81
2023-02-14T17:56:27.317Z,99782.38
2023-02-14T17:58:55.402Z,99774.78
2023-02-14T18:01:26.000Z,99779.59
2023-02-14T18:03:56.237Z,99772.72
2023-02-14T18:06:23.546Z,99775.00
2023-02-14T18:08:53.187Z,99780.94
2023-02-14T18:11:21.760Z,99787.59
2023-02-14T18:13:50.004Z,99793.53
2023-02-14T18:16:18.938Z,99790.63
2023-02-14T18:18:46.458Z,99788.75
2023-02-14T18:21:16.069Z,99786.03
2023-02-14T18:23:43.530Z,99795.06
2023-02-14T18:26:12.860Z,99798.09
2023-02-14T18:28:40.044Z,99804.34
2023-02-14T18:31:12.924Z,99801.22
2023-02-14T18:33:40.424Z,99808.78
2023-02-14T18:36:13.276Z,99808.59
2023-02-14T18:38:45.278Z,99801.84
2023-02-14T18:41:16.071Z,99803.03
2023-02-14T18:43:44.643Z,99806.75
2023-02-14T18:46:15.252Z,99817.00
2023-02-14T18:48:44.126Z,99818.75
2023-02-14T18:51:14.288Z,99825.47
2023-02-14T18:53:43.189Z,99828.13
2023-02-14T18:56:13.549Z,99818.53
2023-02-14T18:58:42.366Z,99836.59
2023-02-14T19:01:15.197Z,99835.31
2023-02-14T19:03:43.131Z,99846.97
2023-02-14T19:06:12.090Z,99839.34
2023-02-14T19:08:40.557Z,99850.63
2023-02-14T19:11:16.874Z,99851.69
2023-02-14T19:13:46.400Z,99845.38
2023-02-14T19:16:16.239Z,99854.63
2023-02-14T19:18:43.723Z,99852.06
2023-02-14T19:21:16.043Z,99847.44
2023-02-14T19:23:43.190Z,99858.63
2023-02-14T19:26:16.126Z,99880.69
2023-02-14T19:28:46.899Z,99880.00
2023-02-14T19:31:14.042Z,99864.03
2023-02-14T19:33:46.691Z,99894.22
2023-02-14T19:36:16.117Z,99903.34
2023-02-14T19:38:44.857Z,99902.59
2023-02-14T19:41:17.134Z,99900.84
2023-02-14T19:43:46.097Z,99913.69
2023-02-14T19:46:14.528Z,99918.13
2023-02-14T19:48:44.271Z,99912.06
2023-02-14T19:51:29.579Z,99897.22
2023-02-14T19:54:00.437Z,99904.81
2023-02-14T19:56:33.070Z,99920.00
2023-02-14T19:59:00.546Z,99923.06
2023-02-14T20:01:31.921Z,99931.84
2023-02-14T20:03:59.043Z,99953.56
2023-02-14T20:06:29.379Z,99936.84
2023-02-14T20:08:57.091Z,99937.50
2023-02-14T20:11:33.043Z,99946.59
2023-02-14T20:14:01.378Z,99947.78
2023-02-14T20:16:31.553Z,99954.28
2023-02-14T20:19:00.925Z,99949.66
2023-02-14T20:21:28.516Z,99949.00
2023-02-14T20:24:00.945Z,99955.31
2023-02-14T20:26:29.509Z,99947.19
2023-02-14T20:29:00.097Z,99958.13
2023-02-14T20:31:27.409Z,99956.03
2023-02-14T20:33:55.549Z,99956.75
2023-02-14T20:36:25.888Z,99955.19
2023-02-14T20:38:56.396Z,99946.06
2023-02-14T20:41:23.834Z,99966.44
2023-02-14T20:43:50.921Z,99964.44
2023-02-14T20:46:18.529Z,99968.56
2023-02-14T20:48:45.732Z,99958.63
2023-02-14T20:51:18.529Z,99977.81
2023-02-14T20:53:48.951Z,99978.16
2023-02-14T20:56:16.703Z,99987.78
2023-02-14T20:58:43.785Z,99973.97
2023-02-14T21:01:16.563Z,99962.38
2023-02-14T21:03:46.987Z,100012.31
2023-02-14T21:06:15.195Z,99993.63
2023-02-14T21:08:44.500Z,99995.00
2023-02-14T21:11:13.837Z,99979.16
2023-02-14T21:13:41.047Z,100007.50
2023-02-14T21:16:16.540Z,100010.72
2023-02-14T21:18:48.120Z,100001.13
2023-02-14T21:21:20.799Z,100008.63
2023-02-14T21:23:52.178Z,100021.53
2023-02-14T21:26:21.420Z,100028.84
2023-02-14T21:28:48.773Z,100026.66
2023-02-14T21:31:20.978Z,100035.13
2023-02-14T21:33:53.660Z,100033.81
2023-02-14T21:36:22.716Z,100026.53
2023-02-14T21:38:50.582Z,100038.63
2023-02-14T21:41:20.516Z,100043.41
2023-02-14T21:43:50.317Z,100045.72
2023-02-14T21:46:19.981Z,100030.38
2023-02-14T21:49:05.744Z,100035.16
2023-02-14T21:51:32.965Z,100046.72
2023-02-14T21:54:00.067Z,100049.81
2023-02-14T21:56:28.150Z,100051.41
2023-02-14T21:59:14.170Z,100050.66
2023-02-14T22:01:42.631Z,100045.56
2023-02-14T22:04:12.362Z,100054.25
2023-02-14T22:06:41.143Z,100064.78
2023-02-14T22:09:09.239Z,100066.97
2023-02-14T22:11:36.750Z,100057.88
2023-02-14T22:14:03.883Z,100079.22
2023-02-14T22:16:31.294Z,100065.47
2023-02-14T22:18:58.437Z,100061.72
2023-02-14T22:21:27.176Z,100059.25
2023-02-14T22:23:55.860Z,100066.81
2023-02-14T22:26:28.841Z,100059.94
2023-02-14T22:28:59.279Z,100070.94
2023-02-14T22:31:28.562Z,100081.47
2023-02-14T22:33:55.902Z,100083.91
2023-02-14T22:36:23.125Z,100086.66
2023-02-14T22:38:50.409Z,100082.63
2023-02-14T22:41:21.056Z,100082.13
2023-02-14T22:43:48.861Z,100091.53
2023-02-14T22:46:27.251Z,100066.88
2023-02-14T22:48:55.665Z,100094.38
2023-02-14T22:51:26.023Z,100095.03
2023-02-14T22:54:07.913Z,100090.88
2023-02-14T22:56:47.991Z,100091.69
2023-02-14T22:59:18.700Z,100083.00
2023-02-14T23:01:46.500Z,100102.72
2023-02-14T23:04:16.070Z,100102.41
2023-02-14T23:06:43.872Z,100098.31
2023-02-14T23:09:12.391Z,100095.38
2023-02-14T23:11:40.976Z,100103.22
2023-02-14T23:14:27.738Z,100102.72
2023-02-14T23:17:13.363Z,100100.53
2023-02-14T23:19:59.358Z,100109.22
2023-02-14T23:22:29.054Z,100124.41
2023-02-14T23:24:58.690Z,100123.97
2023-02-14T23:27:38.674Z,100116.28
2023-02-14T23:30:08.606Z,100113.75
2023-02-14T23:32:36.141Z,100115.09
2023-02-14T23:35:03.277Z,100098.78
2023-02-14T23:37:31.131Z,100118.16
2023-02-14T23:39:58.217Z,100118.88
2023-02-14T23:42:25.250Z,100124.28
2023-02-14T23:44:52.306Z,100119.34
2023-02-14T23:47:19.406Z,100120.69
2023-02-14T23:49:46.498Z,100121.03
2023-02-14T23:52:14.023Z,100132.38
2023-02-14T23:54:41.314Z,100136.97
2023-02-14T23:57:09.301Z,100125.63
2023-02-14T23:59:36.485Z,100136.97
